createdAt,value
2022-10-05T00:00:58.447Z,14.2
2022-10-05T00:15:58.424Z,14.2
2022-10-05T00:30:58.412Z,14
2022-10-05T00:45:58.530Z,14.1
2022-10-05T01:00:58.398Z,13.6
2022-10-05T01:15:58.350Z,13.6
2022-10-05T01:30:58.360Z,13.5
2022-10-05T01:45:58.387Z,13.3
2022-10-05T02:00:58.328Z,13
2022-10-05T02:15:58.374Z,12.8
2022-10-05T02:30:58.280Z,12.6
2022-10-05T02:45:58.258Z,12.6
2022-10-05T03:00:58.262Z,12.6
2022-10-05T03:15:58.281Z,12.6
2022-10-05T03:30:58.228Z,12.6
2022-10-05T03:45:58.204Z,12.7
2022-10-05T04:00:58.161Z,12.4
2022-10-05T04:15:58.153Z,12.3
2022-10-05T04:30:58.139Z,12.2
2022-10-05T04:45:58.065Z,12
2022-10-05T05:00:58.122Z,11.8
2022-10-05T05:15:58.086Z,11.8
2022-10-05T05:30:58.061Z,11.4
2022-10-05T05:45:57.989Z,11.4
2022-10-05T06:00:57.996Z,11.5
2022-10-05T06:15:57.993Z,11.7
2022-10-05T06:30:57.963Z,12.9
2022-10-05T06:45:58.006Z,16.1
2022-10-05T07:00:58.012Z,17.1
2022-10-05T07:15:57.916Z,18.2
2022-10-05T07:30:57.941Z,18.9
2022-10-05T07:45:57.901Z,19.8
2022-10-05T08:00:57.827Z,20.3
2022-10-05T08:15:57.827Z,21.1
2022-10-05T08:30:57.816Z,21.8
2022-10-05T08:45:57.798Z,24
2022-10-05T09:00:57.725Z,24.8
2022-10-05T09:15:57.704Z,22.3
2022-10-05T09:30:57.756Z,20.6
2022-10-05T09:45:57.686Z,19.2
2022-10-05T10:01:09.158Z,18.5
2022-10-05T10:15:57.651Z,18
2022-10-05T10:30:57.660Z,18.9
2022-10-05T11:00:57.508Z,19.5
2022-10-05T11:15:57.617Z,19.5
2022-10-05T11:30:57.508Z,19.4
2022-10-05T11:45:57.406Z,19.4
2022-10-05T12:00:57.410Z,19.5
2022-10-05T12:15:57.385Z,19.7
2022-10-05T12:30:57.363Z,19.8
2022-10-05T12:45:57.469Z,20.1
2022-10-05T13:15:57.288Z,20.6
2022-10-05T13:30:57.236Z,20.7
2022-10-05T13:45:57.439Z,20.7
2022-10-05T14:00:57.188Z,20.8
2022-10-05T14:15:57.153Z,20.9
2022-10-05T14:30:59.134Z,20.9
2022-10-05T14:45:57.230Z,21
2022-10-05T15:00:57.244Z,21.2
2022-10-05T15:15:57.093Z,21.3
2022-10-05T15:30:57.093Z,21.4
2022-10-05T15:45:57.049Z,21.4
2022-10-05T16:00:57.060Z,21.4
2022-10-05T16:15:56.974Z,21.2
2022-10-05T16:30:57.033Z,21.1
2022-10-05T16:45:56.933Z,20.7
2022-10-05T17:00:56.901Z,20.5
2022-10-05T17:15:56.960Z,20.4
2022-10-05T17:30:56.894Z,20.2
2022-10-05T17:45:56.860Z,19.8
2022-10-05T18:00:56.809Z,19.6
2022-10-05T18:15:56.837Z,19.3
2022-10-05T18:30:56.795Z,19.1
2022-10-05T18:45:56.693Z,18.8
2022-10-05T19:00:56.703Z,18.6
2022-10-05T19:15:56.741Z,18.5
2022-10-05T19:30:56.734Z,17.9
2022-10-05T19:45:56.599Z,17.7
2022-10-05T20:00:56.611Z,17.4
2022-10-05T20:15:56.590Z,17.2
2022-10-05T20:30:56.581Z,16.7
2022-10-05T20:45:56.493Z,16.4
2022-10-05T21:00:56.577Z,16.4
2022-10-05T21:15:56.501Z,16.5
2022-10-05T21:30:56.455Z,16.1
2022-10-05T21:45:56.436Z,15.5
2022-10-05T22:00:56.519Z,15.4
2022-10-05T22:15:56.399Z,15.2
2022-10-05T22:30:56.385Z,15.2
2022-10-05T22:45:56.480Z,15.1
2022-10-05T23:00:58.208Z,15.2
2022-10-05T23:15:56.298Z,15
2022-10-05T23:30:56.352Z,14.9
2022-10-05T23:45:56.411Z,14.9
